0CO4 weather

Geo-Seis Helicopters Heliport
Fort Collins, Colorado, United States

Public forecast

Using degrees Fahrenheit for public forecast. Weather courtesy of forecast.io.

Closest aviation weather report (METAR) to Geo-Seis Helicopters Heliport

Closest report is Northern Colorado Regional Airport, 8.4 nm (15.6 km) S. Retrieved 2020/02/22 00:56 UTC (21 minutes ago):

KFNL 220056Z AUTO 00000KT 10SM CLR 07/M10 A3016 RMK AO2 SLP240 T00671100

Closest aviation forecast (TAF) to Geo-Seis Helicopters Heliport

Closest forecast is Cheyenne Regional Jerry Olson Field, 35.6 nm (65.9 km) NNE. Retrieved 2020-02-22 00:22 UTC (55 minutes ago):

TAF KCYS 212320Z 2200/2224 24009KT P6SM SKC FM220600 28020G30KT P6SM SKC FM221600 26015G25KT P6SM SKC